Time;durP1;ratioP1;P1;durP2;ratioP2;P2;SDS_P1;SDS_P2;PMS_P1;PMS_P2;Temp;Humidity;BMP_temperature;BMP_pressure;BME280_temperature;BME280_humidity;BME280_pressure;Samples;Min_cycle;Max_cycle;Signal;HPM_P1;HPM_P2
2021/11/29 00:00:12;;;;;;;4.00;2.53;;;4.10;81.60;;;;;;4977289;28;20034;-84
2021/11/29 00:02:38;;;;;;;3.25;2.15;;;4.10;81.70;;;;;;4978099;28;20531;-82
2021/11/29 00:05:04;;;;;;;4.68;2.40;;;4.10;81.70;;;;;;4978805;28;20496;-82
2021/11/29 00:07:30;;;;;;;3.53;2.40;;;4.10;81.70;;;;;;4976146;28;20027;-81
2021/11/29 00:09:56;;;;;;;3.83;2.08;;;4.10;81.70;;;;;;4974403;28;20022;-84
2021/11/29 00:12:22;;;;;;;4.13;2.05;;;4.10;81.60;;;;;;4967449;28;20121;-83
2021/11/29 00:14:48;;;;;;;6.28;2.10;;;4.10;81.80;;;;;;4969266;28;20376;-83
2021/11/29 00:17:15;;;;;;;3.65;2.30;;;4.10;81.80;;;;;;4972039;28;20401;-83
2021/11/29 00:19:40;;;;;;;2.88;1.90;;;4.10;81.70;;;;;;4973021;28;20102;-82
2021/11/29 00:22:06;;;;;;;2.53;1.60;;;4.10;81.70;;;;;;4978116;28;20126;-82
2021/11/29 00:24:32;;;;;;;2.20;2.00;;;4.10;81.60;;;;;;4978639;28;20452;-82
2021/11/29 00:26:57;;;;;;;2.65;2.05;;;4.00;81.70;;;;;;4974660;28;20031;-83
2021/11/29 00:29:23;;;;;;;3.58;2.28;;;4.00;81.80;;;;;;4979118;28;20092;-84
2021/11/29 00:31:48;;;;;;;4.15;2.00;;;4.00;81.80;;;;;;4979915;28;20109;-83
2021/11/29 00:34:14;;;;;;;3.20;1.90;;;3.90;81.80;;;;;;4983821;28;20058;-82
2021/11/29 00:36:40;;;;;;;3.15;1.75;;;4.00;82.10;;;;;;4981744;28;20038;-83
2021/11/29 00:39:05;;;;;;;2.40;1.60;;;4.00;82.20;;;;;;4981793;28;20030;-83
2021/11/29 00:41:31;;;;;;;3.05;1.52;;;4.00;82.10;;;;;;4981428;28;20046;-83
2021/11/29 00:43:56;;;;;;;1.73;1.45;;;4.10;82.20;;;;;;4978096;28;20102;-83
2021/11/29 00:46:22;;;;;;;2.15;1.50;;;4.10;82.10;;;;;;4981920;28;20531;-82
2021/11/29 00:48:47;;;;;;;3.53;1.75;;;4.10;82.10;;;;;;4980634;28;20018;-83
2021/11/29 00:51:13;;;;;;;2.53;1.58;;;4.10;82.00;;;;;;4979942;28;20062;-83
2021/11/29 00:53:38;;;;;;;2.05;1.40;;;4.20;82.10;;;;;;4973387;28;20027;-83
2021/11/29 00:56:04;;;;;;;2.30;1.35;;;4.20;82.10;;;;;;4972748;28;20027;-83
2021/11/29 00:58:30;;;;;;;3.25;1.50;;;4.20;82.00;;;;;;4973792;28;20039;-82
2021/11/29 01:00:57;;;;;;;2.25;1.30;;;4.20;82.00;;;;;;4971791;28;20015;-82
2021/11/29 01:03:22;;;;;;;2.20;1.40;;;4.30;81.90;;;;;;4972588;28;20478;-82
2021/11/29 01:05:48;;;;;;;1.08;0.98;;;4.30;81.90;;;;;;4971761;28;20031;-82
2021/11/29 01:08:13;;;;;;;1.83;1.10;;;4.20;81.90;;;;;;4971951;28;20011;-82
2021/11/29 01:10:39;;;;;;;1.17;1.00;;;4.30;82.00;;;;;;4972803;28;20389;-83
2021/11/29 01:13:05;;;;;;;1.48;1.00;;;4.20;82.00;;;;;;4971919;28;20190;-83
2021/11/29 01:15:34;;;;;;;1.20;1.10;;;4.20;82.00;;;;;;4972278;28;20019;-85
2021/11/29 01:18:07;;;;;;;1.30;1.10;;;4.20;82.00;;;;;;4973346;28;20058;-87
2021/11/29 01:20:34;;;;;;;1.52;1.10;;;4.20;82.00;;;;;;4972221;28;20106;-86
2021/11/29 01:22:59;;;;;;;1.20;1.10;;;4.20;82.10;;;;;;4972217;28;20510;-86
2021/11/29 01:25:25;;;;;;;2.63;1.20;;;4.20;82.20;;;;;;4972679;28;20059;-87
2021/11/29 01:27:51;;;;;;;2.13;1.05;;;4.20;82.20;;;;;;4973442;28;20572;-86
2021/11/29 01:30:16;;;;;;;2.47;1.10;;;4.10;82.20;;;;;;4973508;28;20050;-87
2021/11/29 01:32:42;;;;;;;1.63;0.90;;;4.20;82.30;;;;;;4973673;28;20034;-86
2021/11/29 01:35:08;;;;;;;1.20;0.90;;;4.20;82.40;;;;;;4972862;28;20568;-87
2021/11/29 01:37:35;;;;;;;2.15;1.00;;;4.10;82.30;;;;;;4973120;28;20054;-87
2021/11/29 01:40:05;;;;;;;2.22;0.90;;;4.20;82.40;;;;;;4971250;28;20131;-83
2021/11/29 01:42:30;;;;;;;0.77;0.70;;;4.20;82.40;;;;;;4970197;28;20037;-83
2021/11/29 01:44:57;;;;;;;1.02;0.88;;;4.20;82.30;;;;;;4972090;28;20023;-83
2021/11/29 01:47:23;;;;;;;1.45;1.00;;;4.20;82.40;;;;;;4972334;28;20023;-84
2021/11/29 01:49:48;;;;;;;1.98;0.82;;;4.20;82.30;;;;;;4972762;28;20118;-84
2021/11/29 01:52:14;;;;;;;1.55;1.00;;;4.10;82.30;;;;;;4972599;28;20544;-84
2021/11/29 01:54:42;;;;;;;1.98;1.10;;;4.10;82.40;;;;;;4967959;28;20038;-84
2021/11/29 01:57:08;;;;;;;2.22;1.00;;;4.10;82.40;;;;;;4971592;28;20177;-84
2021/11/29 01:59:34;;;;;;;1.10;0.75;;;4.10;82.50;;;;;;4970715;28;20549;-85
2021/11/29 02:02:00;;;;;;;1.77;0.90;;;4.00;82.40;;;;;;4972371;28;20181;-84
2021/11/29 02:04:25;;;;;;;2.45;0.90;;;4.00;82.50;;;;;;4999092;28;20039;-84
2021/11/29 02:06:51;;;;;;;0.90;0.90;;;4.00;82.60;;;;;;4972881;28;20428;-84
2021/11/29 02:09:17;;;;;;;1.52;0.90;;;4.00;82.60;;;;;;4971845;28;20042;-84
2021/11/29 02:11:42;;;;;;;1.58;0.90;;;4.00;82.50;;;;;;4972258;28;20022;-85
2021/11/29 02:14:09;;;;;;;0.98;0.80;;;4.00;82.60;;;;;;4971880;28;20015;-84
2021/11/29 02:16:35;;;;;;;2.40;0.88;;;4.00;82.70;;;;;;4971111;28;20038;-83
2021/11/29 02:19:02;;;;;;;1.58;0.90;;;4.00;82.70;;;;;;4971913;28;20029;-84
2021/11/29 02:21:31;;;;;;;1.48;1.10;;;4.00;82.70;;;;;;4971786;28;20054;-83
2021/11/29 02:24:02;;;;;;;2.95;1.08;;;4.00;82.70;;;;;;4970195;28;20018;-85
2021/11/29 02:26:29;;;;;;;2.15;1.00;;;4.00;82.70;;;;;;4969822;28;20049;-84
2021/11/29 02:29:16;;;;;;;1.67;1.00;;;4.00;82.70;;;;;;4971359;28;20023;-84
2021/11/29 02:31:44;;;;;;;1.17;1.00;;;4.00;82.80;;;;;;4964888;28;20517;-84
2021/11/29 02:34:18;;;;;;;1.20;0.90;;;4.00;82.80;;;;;;4971752;28;20018;-84
2021/11/29 02:36:45;;;;;;;2.08;1.00;;;4.00;82.70;;;;;;4970870;28;20041;-84
2021/11/29 02:39:12;;;;;;;1.67;1.00;;;4.00;82.80;;;;;;4971435;28;20373;-84
2021/11/29 02:41:39;;;;;;;2.63;1.10;;;4.00;82.80;;;;;;4971039;28;20030;-84
2021/11/29 02:44:05;;;;;;;2.85;1.05;;;4.00;82.70;;;;;;4969537;28;20429;-85
2021/11/29 02:46:31;;;;;;;2.20;0.80;;;4.00;82.90;;;;;;4971156;28;20077;-84
2021/11/29 02:48:57;;;;;;;1.88;1.00;;;4.00;82.90;;;;;;4971597;28;20031;-85
2021/11/29 02:51:26;;;;;;;1.67;0.90;;;4.00;82.90;;;;;;4969496;28;20027;-85
2021/11/29 02:54:02;;;;;;;1.20;0.80;;;4.00;82.90;;;;;;4969589;28;20026;-84
2021/11/29 02:56:28;;;;;;;2.25;0.98;;;4.00;82.90;;;;;;4961791;28;20038;-85
2021/11/29 02:58:53;;;;;;;1.02;0.90;;;4.00;82.90;;;;;;4971246;28;20614;-84
2021/11/29 03:01:19;;;;;;;1.27;1.00;;;4.00;82.90;;;;;;4971507;28;20416;-84
2021/11/29 03:03:54;;;;;;;1.60;0.90;;;4.00;82.90;;;;;;4968541;28;20077;-82
2021/11/29 03:06:20;;;;;;;1.40;0.90;;;3.90;82.90;;;;;;4970582;28;20129;-84
2021/11/29 03:08:47;;;;;;;1.90;1.00;;;3.90;82.90;;;;;;4970915;28;20157;-83
2021/11/29 03:11:14;;;;;;;1.38;0.93;;;3.90;82.90;;;;;;4969979;28;20033;-83
2021/11/29 03:13:40;;;;;;;0.93;0.90;;;3.90;82.80;;;;;;4971107;28;20470;-83
2021/11/29 03:16:06;;;;;;;2.08;1.17;;;3.90;82.90;;;;;;4970039;28;20035;-83
2021/11/29 03:18:34;;;;;;;1.85;0.80;;;3.90;82.90;;;;;;4967983;28;20031;-83
2021/11/29 03:21:00;;;;;;;2.22;0.90;;;3.90;83.00;;;;;;4969520;28;20031;-83
2021/11/29 03:23:26;;;;;;;1.45;0.80;;;3.90;82.90;;;;;;4970195;28;20118;-83
2021/11/29 03:25:51;;;;;;;1.85;0.82;;;3.90;82.90;;;;;;4969006;28;20026;-83
2021/11/29 03:28:17;;;;;;;1.40;0.90;;;3.90;82.90;;;;;;4970753;28;20116;-83
2021/11/29 03:30:43;;;;;;;1.15;0.90;;;3.90;83.00;;;;;;4970576;28;20493;-83
2021/11/29 03:33:08;;;;;;;2.20;1.00;;;3.80;82.90;;;;;;4968361;28;20038;-83
2021/11/29 03:35:36;;;;;;;1.48;0.90;;;3.90;83.00;;;;;;4970133;28;20050;-85
2021/11/29 03:38:06;;;;;;;1.50;0.82;;;3.90;83.00;;;;;;4969635;28;20031;-85
2021/11/29 03:40:32;;;;;;;0.88;0.82;;;3.90;82.90;;;;;;4970333;28;20105;-89
2021/11/29 03:42:58;;;;;;;1.75;0.75;;;3.90;82.90;;;;;;4969212;28;20031;-84
2021/11/29 03:45:23;;;;;;;2.65;0.82;;;3.90;82.90;;;;;;4968489;28;20030;-86
2021/11/29 03:47:49;;;;;;;1.17;0.85;;;3.90;82.80;;;;;;4964852;28;21231;-85
2021/11/29 03:50:14;;;;;;;1.33;0.90;;;3.90;82.80;;;;;;4970474;28;20033;-85
2021/11/29 03:52:40;;;;;;;1.52;0.80;;;4.00;82.90;;;;;;4970445;28;20034;-85
2021/11/29 03:55:06;;;;;;;1.42;0.80;;;3.90;82.90;;;;;;4969467;28;20636;-86
2021/11/29 03:57:31;;;;;;;1.80;1.00;;;3.90;82.80;;;;;;4968526;28;20390;-86
2021/11/29 03:59:57;;;;;;;2.20;0.98;;;3.90;82.80;;;;;;4970413;28;20030;-85
2021/11/29 04:02:23;;;;;;;0.82;0.82;;;3.90;82.90;;;;;;4969981;28;20077;-86
2021/11/29 04:04:48;;;;;;;1.08;0.88;;;3.90;82.90;;;;;;4970387;28;20027;-87
2021/11/29 04:07:14;;;;;;;0.93;0.70;;;3.90;83.00;;;;;;4970556;28;20062;-87
2021/11/29 04:09:40;;;;;;;1.20;1.10;;;4.00;82.90;;;;;;4968660;28;20035;-85
2021/11/29 04:12:06;;;;;;;0.88;0.85;;;3.90;82.80;;;;;;4970488;28;20047;-82
2021/11/29 04:14:32;;;;;;;1.50;0.82;;;3.90;83.00;;;;;;4968448;28;20031;-81
2021/11/29 04:16:57;;;;;;;1.45;0.90;;;3.90;82.90;;;;;;4968236;28;20037;-82
2021/11/29 04:19:23;;;;;;;2.35;0.90;;;3.80;82.90;;;;;;4970008;28;20082;-86
2021/11/29 04:21:49;;;;;;;1.02;0.90;;;3.80;83.00;;;;;;4969781;28;20027;-85
2021/11/29 04:24:16;;;;;;;0.88;0.88;;;3.80;83.00;;;;;;4969831;28;20034;-86
2021/11/29 04:26:42;;;;;;;1.85;1.00;;;3.80;83.00;;;;;;4968364;28;20069;-84
2021/11/29 04:29:18;;;;;;;1.50;0.88;;;3.80;83.00;;;;;;4968378;28;20026;-84
2021/11/29 04:31:44;;;;;;;0.80;0.80;;;3.80;83.10;;;;;;4968510;28;20069;-84
2021/11/29 04:34:10;;;;;;;0.60;0.60;;;3.80;83.10;;;;;;4968984;28;20158;-82
2021/11/29 04:36:36;;;;;;;2.45;1.00;;;3.80;83.00;;;;;;4969553;28;20126;-81
2021/11/29 04:39:02;;;;;;;1.52;1.15;;;3.80;83.10;;;;;;4969478;28;20449;-82
2021/11/29 04:41:27;;;;;;;1.45;1.00;;;3.80;83.20;;;;;;4968225;28;20181;-81
2021/11/29 04:43:53;;;;;;;1.13;0.90;;;3.70;83.10;;;;;;4969103;28;20023;-81
2021/11/29 04:46:18;;;;;;;1.10;1.00;;;3.80;83.10;;;;;;4969788;28;20030;-84
2021/11/29 04:48:44;;;;;;;1.27;1.10;;;3.80;83.00;;;;;;4969881;28;20584;-83
2021/11/29 04:51:10;;;;;;;1.10;1.00;;;3.80;83.00;;;;;;4969418;28;20022;-83
2021/11/29 04:53:35;;;;;;;2.85;1.20;;;3.80;83.00;;;;;;4969270;28;20425;-81
2021/11/29 04:56:02;;;;;;;1.67;1.00;;;3.80;82.90;;;;;;4973227;28;20034;-83
2021/11/29 04:58:29;;;;;;;2.08;1.10;;;3.80;82.90;;;;;;4984938;28;20026;-81
2021/11/29 05:00:54;;;;;;;2.65;1.15;;;3.80;82.90;;;;;;4964104;28;20588;-83
2021/11/29 05:03:20;;;;;;;1.98;1.15;;;3.80;82.90;;;;;;4976834;28;20031;-84
2021/11/29 05:05:46;;;;;;;1.85;1.25;;;3.70;82.80;;;;;;4974820;28;20081;-83
2021/11/29 05:08:12;;;;;;;1.02;0.90;;;3.70;82.90;;;;;;4973996;28;20042;-83
2021/11/29 05:10:38;;;;;;;1.33;1.00;;;3.70;82.90;;;;;;4977226;28;20023;-84
2021/11/29 05:13:03;;;;;;;2.20;1.20;;;3.70;83.00;;;;;;4982704;28;20039;-84
2021/11/29 05:15:29;;;;;;;2.38;1.05;;;3.70;83.00;;;;;;4982898;28;20022;-84
2021/11/29 05:17:54;;;;;;;1.67;1.10;;;3.70;82.90;;;;;;4978623;28;20039;-84
2021/11/29 05:20:20;;;;;;;2.75;1.40;;;3.70;83.40;;;;;;4982503;28;20038;-83
2021/11/29 05:22:46;;;;;;;3.08;1.30;;;3.70;82.80;;;;;;4979092;28;20039;-82
2021/11/29 05:25:11;;;;;;;3.42;1.20;;;3.70;82.80;;;;;;4973996;28;20023;-83
2021/11/29 05:27:37;;;;;;;2.25;1.10;;;3.70;82.90;;;;;;4986312;28;20033;-83
2021/11/29 05:30:04;;;;;;;1.98;1.20;;;3.70;83.00;;;;;;4977520;28;20038;-81
2021/11/29 05:32:30;;;;;;;3.22;1.10;;;3.70;82.90;;;;;;4973432;28;20085;-82
2021/11/29 05:34:55;;;;;;;2.92;1.30;;;3.60;82.80;;;;;;4976352;28;20397;-83
2021/11/29 05:37:22;;;;;;;1.10;1.00;;;3.60;82.90;;;;;;4974516;28;20548;-82
2021/11/29 05:39:48;;;;;;;2.70;1.00;;;3.70;83.10;;;;;;4980477;28;20034;-82
2021/11/29 05:42:14;;;;;;;1.98;1.20;;;3.70;83.20;;;;;;4972605;28;20031;-82
2021/11/29 05:44:39;;;;;;;2.38;1.10;;;3.70;83.00;;;;;;4981960;28;20027;-82
2021/11/29 05:47:05;;;;;;;2.30;1.30;;;3.70;83.00;;;;;;4970639;28;20037;-82
2021/11/29 05:49:30;;;;;;;2.35;1.13;;;3.80;83.00;;;;;;4970034;28;20038;-81
2021/11/29 05:51:57;;;;;;;2.40;1.17;;;3.80;82.90;;;;;;4972176;28;20110;-81
2021/11/29 05:54:23;;;;;;;2.47;1.20;;;3.80;82.90;;;;;;4970025;28;20511;-81
2021/11/29 05:56:49;;;;;;;1.73;1.10;;;3.80;82.80;;;;;;4971255;28;20042;-81
2021/11/29 05:59:14;;;;;;;1.45;1.15;;;3.80;82.70;;;;;;4969733;28;20545;-81
2021/11/29 06:01:40;;;;;;;3.25;1.10;;;3.80;82.70;;;;;;4970306;28;20030;-83
2021/11/29 06:04:06;;;;;;;3.05;1.40;;;3.80;82.70;;;;;;4969422;28;20474;-83
2021/11/29 06:06:31;;;;;;;3.22;1.40;;;3.80;82.60;;;;;;4969456;28;20732;-84
2021/11/29 06:08:57;;;;;;;2.10;1.20;;;3.80;82.70;;;;;;4979002;28;20034;-84
2021/11/29 06:11:22;;;;;;;2.10;1.50;;;3.80;82.70;;;;;;4979489;28;20030;-84
2021/11/29 06:13:48;;;;;;;4.55;1.50;;;3.80;82.70;;;;;;4978719;28;20030;-86
2021/11/29 06:16:14;;;;;;;2.40;1.40;;;3.80;82.70;;;;;;4972023;28;20045;-88
2021/11/29 06:18:39;;;;;;;4.53;1.50;;;3.80;82.70;;;;;;4975768;28;20070;-88
2021/11/29 06:21:05;;;;;;;4.72;1.85;;;3.80;82.60;;;;;;4972419;28;20026;-88
2021/11/29 06:23:32;;;;;;;3.33;1.60;;;3.80;82.60;;;;;;4974969;28;20503;-86
2021/11/29 06:25:58;;;;;;;3.83;1.35;;;3.80;82.60;;;;;;4969090;28;20110;-87
2021/11/29 06:28:24;;;;;;;3.13;1.30;;;3.80;82.60;;;;;;4971953;28;20122;-87
2021/11/29 06:30:49;;;;;;;3.13;1.23;;;3.80;82.60;;;;;;4972077;28;20031;-89
2021/11/29 06:33:15;;;;;;;2.67;1.20;;;3.80;82.60;;;;;;4975857;28;20600;-90
2021/11/29 06:35:40;;;;;;;2.25;1.40;;;3.80;82.60;;;;;;4982554;28;20046;-89
2021/11/29 06:38:07;;;;;;;3.08;1.23;;;3.80;82.60;;;;;;4982982;28;20046;-88
2021/11/29 06:40:34;;;;;;;1.10;1.00;;;3.80;83.10;;;;;;4979239;28;20077;-88
2021/11/29 06:43:00;;;;;;;2.67;1.20;;;3.70;82.40;;;;;;4982959;28;20058;-89
2021/11/29 06:45:25;;;;;;;2.03;1.35;;;3.70;82.50;;;;;;4989405;28;20482;-89
2021/11/29 06:47:51;;;;;;;4.00;1.50;;;3.70;82.60;;;;;;4977763;28;20105;-82
2021/11/29 06:50:18;;;;;;;3.67;1.35;;;3.60;82.70;;;;;;4979505;28;20545;-90
2021/11/29 06:52:44;;;;;;;3.20;1.20;;;3.60;82.60;;;;;;4972299;28;20030;-80
2021/11/29 06:55:15;;;;;;;2.50;1.42;;;3.60;82.80;;;;;;4977991;28;20030;-81
2021/11/29 06:57:42;;;;;;;2.72;1.50;;;3.60;82.80;;;;;;4978807;28;20049;-84
2021/11/29 07:00:10;;;;;;;3.15;1.75;;;3.60;82.80;;;;;;4970180;28;20030;-84
2021/11/29 07:02:36;;;;;;;2.67;1.30;;;3.60;82.80;;;;;;4970137;28;20023;-83
2021/11/29 07:05:02;;;;;;;1.85;1.08;;;3.60;82.80;;;;;;4970598;28;20033;-85
2021/11/29 07:07:28;;;;;;;2.50;1.50;;;3.60;82.80;;;;;;4969821;28;20161;-83
2021/11/29 07:09:53;;;;;;;3.08;1.40;;;3.60;82.80;;;;;;4963622;28;20037;-85
2021/11/29 07:12:19;;;;;;;1.85;1.48;;;3.60;82.80;;;;;;4972632;28;20121;-84
2021/11/29 07:14:44;;;;;;;4.03;1.60;;;3.60;82.80;;;;;;4965348;28;20035;-83
2021/11/29 07:17:10;;;;;;;2.15;1.10;;;3.60;82.90;;;;;;4963752;28;20650;-84
2021/11/29 07:19:37;;;;;;;1.38;1.00;;;3.60;82.80;;;;;;4968505;28;20473;-83
2021/11/29 07:22:05;;;;;;;3.10;1.48;;;3.70;82.90;;;;;;4967606;28;20081;-84
2021/11/29 07:24:31;;;;;;;6.30;1.70;;;3.60;82.90;;;;;;4965722;28;20023;-84
2021/11/29 07:26:57;;;;;;;1.92;1.40;;;3.60;83.00;;;;;;4966730;28;20482;-84
2021/11/29 07:29:23;;;;;;;2.97;1.42;;;3.70;83.00;;;;;;4964361;28;20034;-84
2021/11/29 07:31:48;;;;;;;2.75;1.50;;;3.70;83.00;;;;;;4967430;28;20514;-84
2021/11/29 07:34:14;;;;;;;3.50;1.58;;;3.70;83.00;;;;;;4957027;28;20026;-79
2021/11/29 07:36:39;;;;;;;1.77;1.25;;;3.80;83.00;;;;;;4967020;28;20035;-79
2021/11/29 07:39:07;;;;;;;3.35;1.40;;;3.80;83.00;;;;;;4966972;28;20027;-80
2021/11/29 07:41:33;;;;;;;1.20;1.10;;;3.80;83.00;;;;;;4972316;28;20501;-79
2021/11/29 07:43:58;;;;;;;5.85;1.40;;;3.80;83.00;;;;;;4975129;28;20028;-85
2021/11/29 07:46:24;;;;;;;2.13;1.23;;;3.80;83.10;;;;;;4971989;28;20030;-78
2021/11/29 07:48:50;;;;;;;1.70;1.45;;;3.90;83.20;;;;;;4969608;28;20029;-79
2021/11/29 07:51:16;;;;;;;3.10;1.50;;;3.90;83.20;;;;;;4973047;28;20055;-82
2021/11/29 07:53:41;;;;;;;1.92;1.52;;;3.90;83.20;;;;;;4974027;28;20117;-83
2021/11/29 07:56:07;;;;;;;3.15;1.33;;;3.90;83.20;;;;;;4966932;28;20031;-82
2021/11/29 07:58:33;;;;;;;4.30;1.70;;;3.90;83.20;;;;;;4964752;28;20043;-82
2021/11/29 08:00:59;;;;;;;3.55;1.35;;;4.00;83.20;;;;;;4974689;28;20089;-85
2021/11/29 08:03:25;;;;;;;4.13;1.52;;;4.00;83.30;;;;;;4970925;28;20059;-84
2021/11/29 08:05:50;;;;;;;2.17;1.10;;;4.00;83.20;;;;;;4967237;28;20050;-82
2021/11/29 08:08:16;;;;;;;1.58;1.20;;;4.00;83.30;;;;;;4972980;28;20112;-84
2021/11/29 08:10:42;;;;;;;3.10;1.25;;;4.00;83.20;;;;;;4978125;28;20545;-82
2021/11/29 08:13:09;;;;;;;3.30;1.30;;;4.10;83.30;;;;;;4969927;28;20037;-84
2021/11/29 08:15:39;;;;;;;2.90;1.33;;;4.00;83.40;;;;;;4965176;28;20026;-80
2021/11/29 08:18:06;;;;;;;2.80;0.90;;;4.00;83.40;;;;;;4969691;28;20030;-82
2021/11/29 08:20:31;;;;;;;1.88;1.20;;;4.10;83.50;;;;;;4970078;28;20117;-82
2021/11/29 08:22:57;;;;;;;4.60;1.60;;;4.10;83.40;;;;;;4973124;28;20054;-81
2021/11/29 08:25:23;;;;;;;2.53;1.08;;;4.10;83.40;;;;;;4978757;28;20096;-83
2021/11/29 08:27:48;;;;;;;2.80;1.10;;;4.20;83.40;;;;;;4969828;28;20026;-81
2021/11/29 08:30:17;;;;;;;4.47;1.30;;;4.20;83.40;;;;;;4965974;28;20054;-82
2021/11/29 08:32:42;;;;;;;1.67;1.10;;;4.20;83.40;;;;;;4964927;28;20111;-81
2021/11/29 08:35:10;;;;;;;4.07;1.30;;;4.20;83.50;;;;;;4976917;28;20122;-80
2021/11/29 08:37:37;;;;;;;3.63;1.30;;;4.20;83.50;;;;;;4971540;28;20500;-79
2021/11/29 08:40:03;;;;;;;3.17;1.20;;;4.20;83.60;;;;;;4962600;28;20036;-80
2021/11/29 08:42:29;;;;;;;1.60;1.30;;;4.30;83.60;;;;;;4959475;28;20050;-80
2021/11/29 08:44:55;;;;;;;2.13;1.20;;;4.30;83.50;;;;;;4958812;28;20457;-81
2021/11/29 08:47:21;;;;;;;2.25;1.10;;;4.30;83.50;;;;;;4961162;28;20552;-95
2021/11/29 08:49:47;;;;;;;2.65;1.05;;;4.40;83.50;;;;;;4971743;28;20011;-92
2021/11/29 08:52:15;;;;;;;2.20;1.10;;;4.40;83.50;;;;;;5113220;23;20031;-96
2021/11/29 08:54:59;;;;;;;2.88;1.20;;;4.30;83.50;;;;;;5002050;28;20104;-96
2021/11/29 08:57:31;;;;;;;2.85;1.20;;;4.40;83.60;;;;;;4982431;28;20043;-91
2021/11/29 08:59:59;;;;;;;2.47;1.10;;;4.40;83.60;;;;;;4983455;28;20535;-96
2021/11/29 09:02:31;;;;;;;2.53;1.10;;;4.40;83.70;;;;;;4984903;28;20053;-91
2021/11/29 09:04:56;;;;;;;1.92;1.08;;;4.40;83.70;;;;;;4992713;28;20042;-96
2021/11/29 09:07:59;;;;;;;1.25;0.93;;;4.50;83.70;;;;;;4988112;28;20011;-96
2021/11/29 09:10:50;;;;;;;3.40;1.48;;;4.50;83.70;;;;;;4985857;28;20034;-96
2021/11/29 09:13:39;;;;;;;1.85;1.05;;;4.40;83.60;;;;;;4999434;28;20065;-95
2021/11/29 09:16:14;;;;;;;1.48;1.10;;;4.70;83.90;;;;;;4993407;28;20027;-96
2021/11/29 09:18:41;;;;;;;2.45;1.20;;;4.60;83.80;;;;;;4988888;28;20034;-96
2021/11/29 09:21:10;;;;;;;2.30;1.00;;;4.60;83.70;;;;;;4989450;28;20512;-92
2021/11/29 09:23:49;;;;;;;1.50;0.90;;;4.70;83.70;;;;;;4987215;28;20367;-95
2021/11/29 09:26:21;;;;;;;2.40;1.10;;;4.80;83.80;;;;;;4999461;28;20070;-94
2021/11/29 09:28:46;;;;;;;2.35;1.15;;;4.80;83.70;;;;;;4983408;28;21145;-92
2021/11/29 09:31:19;;;;;;;2.30;0.95;;;4.90;83.70;;;;;;4981342;28;20022;-93
2021/11/29 09:34:21;;;;;;;2.15;0.90;;;4.90;83.70;;;;;;4990833;28;20026;-93
2021/11/29 09:36:46;;;;;;;1.23;0.90;;;5.00;83.70;;;;;;4964659;28;20086;-95
2021/11/29 09:39:12;;;;;;;2.53;1.00;;;5.00;83.70;;;;;;4985829;28;20033;-91
2021/11/29 09:41:37;;;;;;;3.30;0.90;;;5.10;83.70;;;;;;4983384;28;20030;-92
2021/11/29 09:44:04;;;;;;;2.72;1.02;;;5.10;83.70;;;;;;4990535;28;20060;-91
2021/11/29 09:46:30;;;;;;;1.20;0.80;;;5.20;83.70;;;;;;4998372;28;20085;-96
2021/11/29 09:48:56;;;;;;;1.17;1.02;;;5.20;83.70;;;;;;4997491;28;20026;-96
2021/11/29 09:51:23;;;;;;;1.88;1.05;;;5.20;83.70;;;;;;4980594;28;20026;-95
2021/11/29 09:53:48;;;;;;;2.88;1.02;;;5.20;83.70;;;;;;4991219;28;20118;-94
2021/11/29 09:56:14;;;;;;;2.05;1.00;;;5.30;83.80;;;;;;4984879;28;20047;-88
2021/11/29 09:58:40;;;;;;;1.55;1.00;;;5.30;83.80;;;;;;4980124;28;20027;-89
2021/11/29 10:01:06;;;;;;;1.65;0.90;;;5.30;83.80;;;;;;4986007;28;20034;-95
2021/11/29 10:03:32;;;;;;;2.70;1.20;;;5.40;83.90;;;;;;4989881;28;20058;-96
2021/11/29 10:05:58;;;;;;;2.42;1.20;;;5.40;83.80;;;;;;4995149;28;20022;-80
2021/11/29 10:08:33;;;;;;;4.07;1.20;;;5.40;83.80;;;;;;4983910;28;20031;-81
2021/11/29 10:11:05;;;;;;;1.50;1.00;;;5.50;83.90;;;;;;4983583;28;20050;-81
2021/11/29 10:13:48;;;;;;;2.20;1.10;;;5.50;83.90;;;;;;4974598;28;20034;-80
2021/11/29 10:16:38;;;;;;;1.15;0.80;;;5.50;84.00;;;;;;4988528;28;20044;-82
2021/11/29 10:19:08;;;;;;;1.67;0.98;;;5.60;84.00;;;;;;4984209;28;20497;-82
2021/11/29 10:21:34;;;;;;;1.15;1.05;;;5.60;83.90;;;;;;4984470;28;20314;-82
2021/11/29 10:24:01;;;;;;;1.73;0.65;;;5.70;84.00;;;;;;4981658;28;20026;-81
2021/11/29 10:26:30;;;;;;;2.47;1.17;;;5.70;83.90;;;;;;4976050;28;20023;-81
2021/11/29 10:29:00;;;;;;;1.05;0.90;;;5.70;83.90;;;;;;4982716;28;20029;-80
2021/11/29 10:31:29;;;;;;;1.17;0.90;;;5.70;84.00;;;;;;4981999;28;20033;-80
2021/11/29 10:34:00;;;;;;;0.80;0.80;;;5.70;84.00;;;;;;4980158;28;20031;-80
2021/11/29 10:36:30;;;;;;;0.98;0.90;;;5.80;84.10;;;;;;4973538;28;20053;-80
2021/11/29 10:38:59;;;;;;;1.85;0.90;;;5.80;84.10;;;;;;4974278;28;20385;-82
2021/11/29 10:41:32;;;;;;;1.50;1.05;;;5.80;84.10;;;;;;4979929;28;20023;-81
2021/11/29 10:43:59;;;;;;;1.90;1.00;;;5.90;84.10;;;;;;4981119;28;20030;-80
2021/11/29 10:46:34;;;;;;;1.73;0.90;;;5.90;84.10;;;;;;4979883;28;20176;-83
2021/11/29 10:49:03;;;;;;;2.78;0.70;;;5.90;84.00;;;;;;4978469;28;20030;-86
2021/11/29 10:51:29;;;;;;;1.52;1.00;;;6.00;84.00;;;;;;4986028;28;20428;-84
2021/11/29 10:54:19;;;;;;;1.38;1.00;;;6.00;84.00;;;;;;4983198;28;20031;-82
2021/11/29 10:56:46;;;;;;;1.05;0.80;;;6.00;84.10;;;;;;4975219;28;20035;-82
2021/11/29 10:59:14;;;;;;;0.73;0.73;;;5.90;84.10;;;;;;4978105;28;20035;-82
2021/11/29 11:01:43;;;;;;;1.73;0.90;;;6.00;84.20;;;;;;4978790;28;20398;-78
2021/11/29 11:04:20;;;;;;;0.98;0.90;;;6.00;84.20;;;;;;4976931;28;20019;-78
2021/11/29 11:06:49;;;;;;;1.35;0.82;;;6.10;84.30;;;;;;4987536;28;20037;-78
2021/11/29 11:09:19;;;;;;;1.38;0.80;;;6.10;84.20;;;;;;4980757;28;20082;-78
2021/11/29 11:11:51;;;;;;;0.95;0.90;;;6.20;84.20;;;;;;4980605;28;20118;-78
2021/11/29 11:14:25;;;;;;;1.90;1.00;;;6.20;84.20;;;;;;4974216;28;20511;-78
2021/11/29 11:16:58;;;;;;;2.15;0.90;;;6.30;84.20;;;;;;4976897;28;20042;-79
2021/11/29 11:19:49;;;;;;;1.80;0.90;;;6.30;84.10;;;;;;4981516;28;20189;-78
2021/11/29 11:22:20;;;;;;;1.48;0.90;;;6.40;84.20;;;;;;4983452;28;20432;-78
2021/11/29 11:24:56;;;;;;;1.25;1.10;;;6.40;84.30;;;;;;4976497;28;20109;-79
2021/11/29 11:27:24;;;;;;;1.48;0.82;;;6.50;84.30;;;;;;4977680;28;20515;-80
2021/11/29 11:29:57;;;;;;;1.67;1.00;;;6.60;84.30;;;;;;4984911;28;20026;-80
2021/11/29 11:32:31;;;;;;;3.78;1.20;;;6.60;84.20;;;;;;4977340;28;20113;-81
2021/11/29 11:35:00;;;;;;;2.60;1.17;;;6.70;84.10;;;;;;4986727;28;20030;-79
2021/11/29 11:37:33;;;;;;;2.72;1.20;;;6.70;84.20;;;;;;4973812;28;20512;-79
2021/11/29 11:39:59;;;;;;;1.23;1.13;;;6.80;84.20;;;;;;4981602;28;20027;-80
2021/11/29 11:42:26;;;;;;;2.40;1.25;;;6.90;84.20;;;;;;4979681;28;20029;-80
2021/11/29 11:44:52;;;;;;;2.50;1.23;;;6.90;84.80;;;;;;4983419;28;20026;-80
2021/11/29 11:47:19;;;;;;;1.58;1.35;;;6.90;84.10;;;;;;4979035;28;20028;-80
2021/11/29 11:49:47;;;;;;;3.63;1.10;;;6.90;84.10;;;;;;4976005;28;20038;-81
2021/11/29 11:52:18;;;;;;;2.47;1.42;;;6.90;84.20;;;;;;4975262;28;20147;-80
2021/11/29 11:54:45;;;;;;;1.13;1.00;;;6.90;84.20;;;;;;4974968;28;20113;-80
2021/11/29 11:57:15;;;;;;;0.95;0.90;;;6.80;84.60;;;;;;4978686;28;20523;-79
2021/11/29 12:00:06;;;;;;;2.30;1.10;;;6.80;84.10;;;;;;4984040;28;20380;-80
2021/11/29 12:03:05;;;;;;;2.70;1.20;;;6.90;84.20;;;;;;4984689;28;20042;-80
2021/11/29 12:05:52;;;;;;;2.22;1.17;;;6.90;84.10;;;;;;4983643;28;20026;-80
2021/11/29 12:08:37;;;;;;;1.70;1.30;;;6.90;84.00;;;;;;4982632;28;20030;-80
2021/11/29 12:11:26;;;;;;;1.55;1.13;;;6.90;84.00;;;;;;4985207;28;20098;-81
2021/11/29 12:14:19;;;;;;;1.00;0.90;;;6.90;84.00;;;;;;4973380;28;20035;-80
2021/11/29 12:16:48;;;;;;;1.48;0.93;;;6.90;84.00;;;;;;4984050;28;20046;-79
2021/11/29 12:19:40;;;;;;;1.38;0.95;;;6.90;84.60;;;;;;4976777;28;20634;-80
2021/11/29 12:22:20;;;;;;;1.20;1.10;;;6.90;83.80;;;;;;4978353;28;20038;-80
2021/11/29 12:25:03;;;;;;;1.88;1.17;;;6.90;83.80;;;;;;4987812;28;20038;-80
2021/11/29 12:27:48;;;;;;;1.63;1.20;;;6.90;83.80;;;;;;4981905;28;20029;-80
2021/11/29 12:30:17;;;;;;;2.53;1.20;;;7.00;83.80;;;;;;4977779;28;20030;-80
2021/11/29 12:32:54;;;;;;;1.63;1.15;;;7.00;83.80;;;;;;4985380;28;20026;-80
2021/11/29 12:35:33;;;;;;;1.27;1.17;;;7.00;83.80;;;;;;4987655;28;20390;-80
2021/11/29 12:38:11;;;;;;;2.00;1.30;;;7.10;83.70;;;;;;4977696;28;20074;-79
2021/11/29 12:40:43;;;;;;;2.13;1.30;;;7.20;83.70;;;;;;4985988;28;20474;-79
2021/11/29 12:43:09;;;;;;;2.97;1.50;;;7.30;83.60;;;;;;4980265;28;20394;-79
2021/11/29 12:45:36;;;;;;;1.95;1.23;;;7.30;83.40;;;;;;4977818;28;20018;-79
2021/11/29 12:48:14;;;;;;;1.83;1.40;;;7.30;83.30;;;;;;4980667;28;20515;-79
2021/11/29 12:50:52;;;;;;;2.30;1.50;;;7.40;83.30;;;;;;4980497;28;20025;-76
2021/11/29 12:53:26;;;;;;;1.80;1.20;;;7.50;83.30;;;;;;4980033;28;20042;-76
2021/11/29 12:55:55;;;;;;;3.15;1.60;;;7.60;83.20;;;;;;4984300;28;20054;-78
2021/11/29 12:58:23;;;;;;;1.38;1.20;;;7.60;83.10;;;;;;4984641;28;20038;-77
2021/11/29 13:01:07;;;;;;;1.38;1.27;;;7.50;82.90;;;;;;4982143;28;20065;-78
2021/11/29 13:03:41;;;;;;;2.28;1.52;;;7.60;82.90;;;;;;4979382;28;20481;-77